sensor_id;sensor_type;location;lat;lon;timestamp;pressure;altitude;pressure_sealevel;temperature;humidity
10688;BME280;5392;42.688;23.298;2023-08-12T00:00:14;57386.28;;;-144.48;94.36
10688;BME280;5392;42.688;23.298;2023-08-12T00:02:41;57390.47;;;-144.48;94.02
10688;BME280;5392;42.688;23.298;2023-08-12T00:05:09;57363.31;;;-144.48;94.20
10688;BME280;5392;42.688;23.298;2023-08-12T00:07:40;57386.28;;;-144.48;94.50
10688;BME280;5392;42.688;23.298;2023-08-12T00:10:08;57396.72;;;-144.48;93.76
10688;BME280;5392;42.688;23.298;2023-08-12T00:12:35;57354.97;;;-144.48;93.65
10688;BME280;5392;42.688;23.298;2023-08-12T00:15:04;57375.84;;;-144.48;93.25
10688;BME280;5392;42.688;23.298;2023-08-12T00:17:32;57315.31;;;-144.48;93.49
10688;BME280;5392;42.688;23.298;2023-08-12T00:19:59;57348.72;;;-144.48;93.76
10688;BME280;5392;42.688;23.298;2023-08-12T00:22:26;57359.16;;;-144.48;93.07
10688;BME280;5392;42.688;23.298;2023-08-12T00:24:53;57400.91;;;-144.48;93.09
10688;BME280;5392;42.688;23.298;2023-08-12T00:27:20;57359.16;;;-144.48;93.04
10688;BME280;5392;42.688;23.298;2023-08-12T00:29:46;57417.59;;;-144.48;93.36
10688;BME280;5392;42.688;23.298;2023-08-12T00:32:13;57371.69;;;-144.48;94.13
10688;BME280;5392;42.688;23.298;2023-08-12T00:34:40;57350.81;;;-144.48;94.79
10688;BME280;5392;42.688;23.298;2023-08-12T00:37:07;57382.13;;;-144.48;95.07
10688;BME280;5392;42.688;23.298;2023-08-12T00:39:33;57384.19;;;-144.48;96.28
10688;BME280;5392;42.688;23.298;2023-08-12T00:42:00;57369.59;;;-144.48;95.97
10688;BME280;5392;42.688;23.298;2023-08-12T00:44:28;57363.31;;;-144.48;95.70
10688;BME280;5392;42.688;23.298;2023-08-12T00:46:54;57346.63;;;-144.48;95.69
10688;BME280;5392;42.688;23.298;2023-08-12T00:49:25;57394.63;;;-144.48;96.17
10688;BME280;5392;42.688;23.298;2023-08-12T00:51:53;57367.50;;;-144.48;96.09
10688;BME280;5392;42.688;23.298;2023-08-12T00:54:21;57375.84;;;-144.48;95.85
10688;BME280;5392;42.688;23.298;2023-08-12T00:56:49;57340.38;;;-144.48;96.24
10688;BME280;5392;42.688;23.298;2023-08-12T00:59:19;57352.91;;;-144.48;96.35
10688;BME280;5392;42.688;23.298;2023-08-12T01:01:47;57363.31;;;-144.48;96.03
10688;BME280;5392;42.688;23.298;2023-08-12T01:04:14;57388.38;;;-144.48;95.84
10688;BME280;5392;42.688;23.298;2023-08-12T01:06:40;57403.00;;;-144.48;95.17
10688;BME280;5392;42.688;23.298;2023-08-12T01:09:07;57375.84;;;-144.48;94.97
10688;BME280;5392;42.688;23.298;2023-08-12T01:16:49;57359.16;;;-144.48;94.19
10688;BME280;5392;42.688;23.298;2023-08-12T01:19:34;57394.63;;;-144.48;93.72
10688;BME280;5392;42.688;23.298;2023-08-12T01:22:03;57382.13;;;-144.48;93.45
10688;BME280;5392;42.688;23.298;2023-08-12T01:24:38;57382.13;;;-144.48;93.51
10688;BME280;5392;42.688;23.298;2023-08-12T01:27:08;57423.88;;;-144.48;94.53
10688;BME280;5392;42.688;23.298;2023-08-12T01:29:41;57352.91;;;-144.48;94.76
10688;BME280;5392;42.688;23.298;2023-08-12T01:32:34;57390.47;;;-144.48;94.68
10688;BME280;5392;42.688;23.298;2023-08-12T01:35:14;57369.59;;;-144.48;96.42
10688;BME280;5392;42.688;23.298;2023-08-12T01:37:45;57388.38;;;-144.48;95.63
10688;BME280;5392;42.688;23.298;2023-08-12T01:40:14;57394.63;;;-144.48;95.46
10688;BME280;5392;42.688;23.298;2023-08-12T01:42:42;57394.63;;;-144.48;96.23
10688;BME280;5392;42.688;23.298;2023-08-12T01:45:09;57382.13;;;-144.48;96.76
10688;BME280;5392;42.688;23.298;2023-08-12T01:47:38;57382.13;;;-144.48;97.78
10688;BME280;5392;42.688;23.298;2023-08-12T01:50:05;57375.84;;;-144.48;98.33
10688;BME280;5392;42.688;23.298;2023-08-12T01:52:33;57375.84;;;-144.48;98.29
10688;BME280;5392;42.688;23.298;2023-08-12T01:54:59;57375.84;;;-144.48;98.10
10688;BME280;5392;42.688;23.298;2023-08-12T01:57:26;57405.06;;;-144.48;98.14
10688;BME280;5392;42.688;23.298;2023-08-12T01:59:53;57392.56;;;-144.48;97.98
10688;BME280;5392;42.688;23.298;2023-08-12T02:02:20;57398.81;;;-144.48;97.64
10688;BME280;5392;42.688;23.298;2023-08-12T02:04:46;57365.41;;;-144.48;97.88
10688;BME280;5392;42.688;23.298;2023-08-12T02:07:13;57357.06;;;-144.48;98.47
10688;BME280;5392;42.688;23.298;2023-08-12T02:09:40;57403.00;;;-144.48;98.31
10688;BME280;5392;42.688;23.298;2023-08-12T02:12:07;57407.16;;;-144.48;97.79
10688;BME280;5392;42.688;23.298;2023-08-12T02:14:34;57380.03;;;-144.48;97.92
10688;BME280;5392;42.688;23.298;2023-08-12T02:17:03;57392.56;;;-144.48;97.07
10688;BME280;5392;42.688;23.298;2023-08-12T02:19:33;57411.34;;;-144.48;96.33
10688;BME280;5392;42.688;23.298;2023-08-12T02:22:01;57400.91;;;-144.48;96.52
10688;BME280;5392;42.688;23.298;2023-08-12T02:24:30;57332.03;;;-144.48;96.70
10688;BME280;5392;42.688;23.298;2023-08-12T02:26:57;57380.03;;;-144.48;96.39
10688;BME280;5392;42.688;23.298;2023-08-12T02:29:24;57396.72;;;-144.48;96.22
10688;BME280;5392;42.688;23.298;2023-08-12T02:31:50;57375.84;;;-144.48;96.25
10688;BME280;5392;42.688;23.298;2023-08-12T02:34:17;57377.94;;;-144.48;96.70
10688;BME280;5392;42.688;23.298;2023-08-12T02:36:44;57371.69;;;-144.48;97.08
10688;BME280;5392;42.688;23.298;2023-08-12T02:39:11;57346.63;;;-144.48;97.42
10688;BME280;5392;42.688;23.298;2023-08-12T02:41:38;57380.03;;;-144.48;97.13
10688;BME280;5392;42.688;23.298;2023-08-12T02:44:05;57388.38;;;-144.48;98.55
10688;BME280;5392;42.688;23.298;2023-08-12T02:46:32;57369.59;;;-144.48;99.34
10688;BME280;5392;42.688;23.298;2023-08-12T02:48:58;57396.72;;;-144.48;99.68
10688;BME280;5392;42.688;23.298;2023-08-12T02:51:25;57346.63;;;-144.48;99.35
10688;BME280;5392;42.688;23.298;2023-08-12T02:53:52;57403.00;;;-144.48;98.91
10688;BME280;5392;42.688;23.298;2023-08-12T02:56:19;57417.59;;;-144.48;98.37
10688;BME280;5392;42.688;23.298;2023-08-12T02:58:45;57371.69;;;-144.48;97.99
10688;BME280;5392;42.688;23.298;2023-08-12T03:01:13;57377.94;;;-144.48;98.14
10688;BME280;5392;42.688;23.298;2023-08-12T03:03:40;57380.03;;;-144.48;98.42
10688;BME280;5392;42.688;23.298;2023-08-12T03:06:07;57363.31;;;-144.48;98.23
10688;BME280;5392;42.688;23.298;2023-08-12T03:08:34;57359.16;;;-144.48;97.64
10688;BME280;5392;42.688;23.298;2023-08-12T03:11:02;57369.59;;;-144.48;97.44
10688;BME280;5392;42.688;23.298;2023-08-12T03:13:29;57403.00;;;-144.48;96.94
10688;BME280;5392;42.688;23.298;2023-08-12T03:15:56;57388.38;;;-144.48;96.47
10688;BME280;5392;42.688;23.298;2023-08-12T03:18:23;57394.63;;;-144.48;96.04
10688;BME280;5392;42.688;23.298;2023-08-12T03:20:50;57400.91;;;-144.48;95.82
10688;BME280;5392;42.688;23.298;2023-08-12T03:23:17;57361.25;;;-144.48;95.69
10688;BME280;5392;42.688;23.298;2023-08-12T03:25:46;57380.03;;;-144.48;96.07
10688;BME280;5392;42.688;23.298;2023-08-12T03:28:12;57409.25;;;-144.48;96.14
10688;BME280;5392;42.688;23.298;2023-08-12T03:30:39;57398.81;;;-144.48;95.67
10688;BME280;5392;42.688;23.298;2023-08-12T03:33:06;57369.59;;;-144.48;95.27
10688;BME280;5392;42.688;23.298;2023-08-12T03:35:33;57396.72;;;-144.48;94.35
10688;BME280;5392;42.688;23.298;2023-08-12T03:38:00;57375.84;;;-144.48;94.52
10688;BME280;5392;42.688;23.298;2023-08-12T03:40:26;57417.59;;;-144.48;93.29
10688;BME280;5392;42.688;23.298;2023-08-12T03:42:53;57388.38;;;-144.48;92.77
10688;BME280;5392;42.688;23.298;2023-08-12T03:45:20;57390.47;;;-144.48;89.25
10688;BME280;5392;42.688;23.298;2023-08-12T03:47:46;57390.47;;;-144.48;87.82
10688;BME280;5392;42.688;23.298;2023-08-12T03:50:13;57396.72;;;-144.48;82.04
10688;BME280;5392;42.688;23.298;2023-08-12T03:52:40;57407.16;;;-144.48;77.82
10688;BME280;5392;42.688;23.298;2023-08-12T03:55:07;57342.47;;;-144.48;74.49
10688;BME280;5392;42.688;23.298;2023-08-12T03:57:34;57357.06;;;-144.48;70.26
10688;BME280;5392;42.688;23.298;2023-08-12T04:00:01;57340.38;;;-144.48;68.14
10688;BME280;5392;42.688;23.298;2023-08-12T04:02:27;57332.03;;;-144.48;64.65
10688;BME280;5392;42.688;23.298;2023-08-12T04:04:54;57321.59;;;-144.48;61.94
10688;BME280;5392;42.688;23.298;2023-08-12T04:07:21;57329.94;;;-144.48;60.19
10688;BME280;5392;42.688;23.298;2023-08-12T04:09:48;57344.53;;;-144.48;58.11
10688;BME280;5392;42.688;23.298;2023-08-12T04:12:15;57354.97;;;-144.48;56.55
10688;BME280;5392;42.688;23.298;2023-08-12T04:14:41;57344.53;;;-144.48;55.17
10688;BME280;5392;42.688;23.298;2023-08-12T04:17:08;57334.09;;;-144.48;53.75
10688;BME280;5392;42.688;23.298;2023-08-12T04:19:35;57304.88;;;-144.48;53.53
10688;BME280;5392;42.688;23.298;2023-08-12T04:22:02;57336.19;;;-144.48;53.68
10688;BME280;5392;42.688;23.298;2023-08-12T04:24:29;57300.72;;;-144.48;53.51
10688;BME280;5392;42.688;23.298;2023-08-12T04:26:56;57309.06;;;-144.48;52.85
10688;BME280;5392;42.688;23.298;2023-08-12T04:29:23;57325.75;;;-144.48;52.08
10688;BME280;5392;42.688;23.298;2023-08-12T04:31:49;57292.38;;;-144.48;52.07
10688;BME280;5392;42.688;23.298;2023-08-12T04:34:16;57327.84;;;-144.48;51.47
10688;BME280;5392;42.688;23.298;2023-08-12T04:36:43;57288.19;;;-144.48;51.14
10688;BME280;5392;42.688;23.298;2023-08-12T04:39:10;57296.53;;;-144.48;51.35
10688;BME280;5392;42.688;23.298;2023-08-12T04:41:37;57298.63;;;-144.48;51.91
10688;BME280;5392;42.688;23.298;2023-08-12T04:44:06;57327.84;;;-144.48;51.99
10688;BME280;5392;42.688;23.298;2023-08-12T04:46:33;57277.75;;;-144.48;51.41
10688;BME280;5392;42.688;23.298;2023-08-12T04:49:00;57327.84;;;-144.48;51.79
10688;BME280;5392;42.688;23.298;2023-08-12T04:51:27;57313.22;;;-144.48;50.97
10688;BME280;5392;42.688;23.298;2023-08-12T04:53:54;57267.31;;;-144.48;49.31
10688;BME280;5392;42.688;23.298;2023-08-12T04:56:21;57296.53;;;-144.48;49.53
10688;BME280;5392;42.688;23.298;2023-08-12T04:58:48;57325.75;;;-144.48;50.51
10688;BME280;5392;42.688;23.298;2023-08-12T05:01:15;57315.31;;;-144.48;50.66
10688;BME280;5392;42.688;23.298;2023-08-12T05:03:42;57321.59;;;-144.48;50.40
10688;BME280;5392;42.688;23.298;2023-08-12T05:06:08;57321.59;;;-144.48;50.14
10688;BME280;5392;42.688;23.298;2023-08-12T05:08:35;57306.97;;;-144.48;49.20
10688;BME280;5392;42.688;23.298;2023-08-12T05:11:02;57290.28;;;-144.48;49.84
10688;BME280;5392;42.688;23.298;2023-08-12T05:13:29;57321.59;;;-144.48;50.48
10688;BME280;5392;42.688;23.298;2023-08-12T05:15:57;57348.72;;;-144.48;50.53
10688;BME280;5392;42.688;23.298;2023-08-12T05:18:24;57357.06;;;-144.48;50.26
10688;BME280;5392;42.688;23.298;2023-08-12T05:20:51;57309.06;;;-144.48;50.48
10688;BME280;5392;42.688;23.298;2023-08-12T05:23:20;57298.63;;;-144.48;51.39
10688;BME280;5392;42.688;23.298;2023-08-12T05:25:47;57313.22;;;-144.48;50.67
10688;BME280;5392;42.688;23.298;2023-08-12T05:28:14;57267.31;;;-144.48;50.64
10688;BME280;5392;42.688;23.298;2023-08-12T05:30:41;57288.19;;;-144.48;49.92
10688;BME280;5392;42.688;23.298;2023-08-12T05:33:07;57256.88;;;-144.48;49.26
10688;BME280;5392;42.688;23.298;2023-08-12T05:35:35;57263.16;;;-144.48;48.67
10688;BME280;5392;42.688;23.298;2023-08-12T05:38:02;57296.53;;;-144.48;47.86
10688;BME280;5392;42.688;23.298;2023-08-12T05:40:29;57284.00;;;-144.48;47.25
10688;BME280;5392;42.688;23.298;2023-08-12T05:42:55;57313.22;;;-144.48;47.62
10688;BME280;5392;42.688;23.298;2023-08-12T05:45:22;57288.19;;;-144.48;47.45
10688;BME280;5392;42.688;23.298;2023-08-12T05:47:49;57279.84;;;-144.48;47.10
10688;BME280;5392;42.688;23.298;2023-08-12T05:50:16;57269.41;;;-144.48;45.68
10688;BME280;5392;42.688;23.298;2023-08-12T05:52:43;57277.75;;;-144.48;46.30
10688;BME280;5392;42.688;23.298;2023-08-12T05:55:10;57269.41;;;-144.48;45.08
10688;BME280;5392;42.688;23.298;2023-08-12T05:57:37;57252.72;;;-144.48;45.15
10688;BME280;5392;42.688;23.298;2023-08-12T06:00:05;57258.97;;;-144.48;43.94
10688;BME280;5392;42.688;23.298;2023-08-12T06:02:32;57250.63;;;-144.48;44.06
10688;BME280;5392;42.688;23.298;2023-08-12T06:04:58;57246.44;;;-144.48;43.73
10688;BME280;5392;42.688;23.298;2023-08-12T06:07:25;57225.56;;;-144.48;43.13
10688;BME280;5392;42.688;23.298;2023-08-12T06:09:52;57267.31;;;-144.48;43.85
10688;BME280;5392;42.688;23.298;2023-08-12T06:12:19;57238.09;;;-144.48;42.85
10688;BME280;5392;42.688;23.298;2023-08-12T06:14:45;57223.50;;;-144.48;42.86
10688;BME280;5392;42.688;23.298;2023-08-12T06:17:12;57217.22;;;-144.48;43.38
10688;BME280;5392;42.688;23.298;2023-08-12T06:19:39;57217.22;;;-144.48;42.93
10688;BME280;5392;42.688;23.298;2023-08-12T06:22:06;57219.31;;;-144.48;42.54
10688;BME280;5392;42.688;23.298;2023-08-12T06:24:33;57248.53;;;-144.48;42.79
10688;BME280;5392;42.688;23.298;2023-08-12T06:27:00;57231.84;;;-144.48;41.77
10688;BME280;5392;42.688;23.298;2023-08-12T06:29:27;57244.34;;;-144.48;41.47
10688;BME280;5392;42.688;23.298;2023-08-12T06:31:54;57229.75;;;-144.48;41.70
10688;BME280;5392;42.688;23.298;2023-08-12T06:34:20;57225.56;;;-144.48;41.13
10688;BME280;5392;42.688;23.298;2023-08-12T06:36:47;57225.56;;;-144.48;42.24
10688;BME280;5392;42.688;23.298;2023-08-12T06:39:14;57227.66;;;-144.48;41.90
10688;BME280;5392;42.688;23.298;2023-08-12T06:41:41;57225.56;;;-144.48;41.83
10688;BME280;5392;42.688;23.298;2023-08-12T06:44:07;57265.22;;;-144.48;41.78
10688;BME280;5392;42.688;23.298;2023-08-12T06:46:34;57229.75;;;-144.48;42.08
10688;BME280;5392;42.688;23.298;2023-08-12T06:49:01;57263.16;;;-144.48;42.22
10688;BME280;5392;42.688;23.298;2023-08-12T06:51:27;57236.00;;;-144.48;41.52
10688;BME280;5392;42.688;23.298;2023-08-12T06:53:54;57206.78;;;-144.48;42.21
10688;BME280;5392;42.688;23.298;2023-08-12T06:56:21;57246.44;;;-144.48;42.64
10688;BME280;5392;42.688;23.298;2023-08-12T06:58:48;57233.91;;;-144.48;42.47
10688;BME280;5392;42.688;23.298;2023-08-12T07:01:14;57208.88;;;-144.48;43.00
10688;BME280;5392;42.688;23.298;2023-08-12T07:03:41;57244.34;;;-144.48;43.00
10688;BME280;5392;42.688;23.298;2023-08-12T07:06:08;57261.06;;;-144.48;42.44
10688;BME280;5392;42.688;23.298;2023-08-12T07:08:35;57242.28;;;-144.48;42.95
10688;BME280;5392;42.688;23.298;2023-08-12T07:11:01;57263.16;;;-144.48;43.16
10688;BME280;5392;42.688;23.298;2023-08-12T07:13:28;57233.91;;;-144.48;42.05
10688;BME280;5392;42.688;23.298;2023-08-12T07:15:55;57265.22;;;-144.48;41.84
10688;BME280;5392;42.688;23.298;2023-08-12T07:18:22;57236.00;;;-144.48;42.90
10688;BME280;5392;42.688;23.298;2023-08-12T07:20:50;57250.63;;;-144.48;42.96
10688;BME280;5392;42.688;23.298;2023-08-12T07:23:16;57271.50;;;-144.48;43.49
10688;BME280;5392;42.688;23.298;2023-08-12T07:25:46;57225.56;;;-144.48;43.00
10688;BME280;5392;42.688;23.298;2023-08-12T07:28:13;57219.31;;;-144.48;41.80
10688;BME280;5392;42.688;23.298;2023-08-12T07:30:40;57238.09;;;-144.48;42.15
10688;BME280;5392;42.688;23.298;2023-08-12T07:33:06;57246.44;;;-144.48;43.16
10688;BME280;5392;42.688;23.298;2023-08-12T07:35:33;57206.78;;;-144.48;43.19
10688;BME280;5392;42.688;23.298;2023-08-12T07:38:00;57233.91;;;-144.48;42.90
10688;BME280;5392;42.688;23.298;2023-08-12T07:40:27;57248.53;;;-144.48;43.21
10688;BME280;5392;42.688;23.298;2023-08-12T07:42:54;57271.50;;;-144.48;42.69
10688;BME280;5392;42.688;23.298;2023-08-12T07:45:22;57254.78;;;-144.48;41.86
10688;BME280;5392;42.688;23.298;2023-08-12T07:47:49;57221.41;;;-144.48;42.29
10688;BME280;5392;42.688;23.298;2023-08-12T07:50:17;57248.53;;;-144.48;43.66
10688;BME280;5392;42.688;23.298;2023-08-12T07:52:44;57240.19;;;-144.48;42.77
10688;BME280;5392;42.688;23.298;2023-08-12T07:55:11;57275.66;;;-144.48;43.68
10688;BME280;5392;42.688;23.298;2023-08-12T07:57:39;57248.53;;;-144.48;43.27
10688;BME280;5392;42.688;23.298;2023-08-12T08:00:06;57252.72;;;-144.48;43.29
10688;BME280;5392;42.688;23.298;2023-08-12T08:02:34;57290.28;;;-144.48;43.92
10688;BME280;5392;42.688;23.298;2023-08-12T08:05:01;57302.81;;;-144.48;45.04
10688;BME280;5392;42.688;23.298;2023-08-12T08:07:29;57258.97;;;-144.48;45.27
10688;BME280;5392;42.688;23.298;2023-08-12T08:09:56;57250.63;;;-144.48;44.24
10688;BME280;5392;42.688;23.298;2023-08-12T08:12:23;57288.19;;;-144.48;44.34
10688;BME280;5392;42.688;23.298;2023-08-12T08:14:50;57248.53;;;-144.48;44.32
10688;BME280;5392;42.688;23.298;2023-08-12T08:17:17;57298.63;;;-144.48;44.04
10688;BME280;5392;42.688;23.298;2023-08-12T08:19:44;57292.38;;;-144.48;43.99
10688;BME280;5392;42.688;23.298;2023-08-12T08:22:11;57277.75;;;-144.48;44.08
10688;BME280;5392;42.688;23.298;2023-08-12T08:24:38;57315.31;;;-144.48;44.93
10688;BME280;5392;42.688;23.298;2023-08-12T08:27:05;57244.34;;;-144.48;44.88
10688;BME280;5392;42.688;23.298;2023-08-12T08:29:32;57263.16;;;-144.48;44.34
10688;BME280;5392;42.688;23.298;2023-08-12T08:31:59;57223.50;;;-144.48;44.47
10688;BME280;5392;42.688;23.298;2023-08-12T08:34:26;57267.31;;;-144.48;44.48
10688;BME280;5392;42.688;23.298;2023-08-12T08:36:52;57263.16;;;-144.48;44.46
10688;BME280;5392;42.688;23.298;2023-08-12T08:39:19;57309.06;;;-144.48;44.36
10688;BME280;5392;42.688;23.298;2023-08-12T08:41:47;57210.97;;;-144.48;43.71
10688;BME280;5392;42.688;23.298;2023-08-12T08:44:15;57271.50;;;-144.48;44.42
10688;BME280;5392;42.688;23.298;2023-08-12T08:46:43;57294.44;;;-144.48;44.51
10688;BME280;5392;42.688;23.298;2023-08-12T08:49:11;57261.06;;;-144.48;43.29
10688;BME280;5392;42.688;23.298;2023-08-12T08:51:38;57246.44;;;-144.48;42.04
10688;BME280;5392;42.688;23.298;2023-08-12T08:54:05;57279.84;;;-144.48;42.22
10688;BME280;5392;42.688;23.298;2023-08-12T08:56:32;57267.31;;;-144.48;42.66
10688;BME280;5392;42.688;23.298;2023-08-12T08:59:02;57275.66;;;-144.48;42.97
10688;BME280;5392;42.688;23.298;2023-08-12T09:01:29;57269.41;;;-144.48;43.41
10688;BME280;5392;42.688;23.298;2023-08-12T09:03:57;57248.53;;;-144.48;43.37
10688;BME280;5392;42.688;23.298;2023-08-12T09:06:25;57267.31;;;-144.48;44.00
10688;BME280;5392;42.688;23.298;2023-08-12T09:08:52;57271.50;;;-144.48;46.03
10688;BME280;5392;42.688;23.298;2023-08-12T09:11:20;57296.53;;;-144.48;45.44
10688;BME280;5392;42.688;23.298;2023-08-12T09:13:47;57225.56;;;-144.48;46.25
10688;BME280;5392;42.688;23.298;2023-08-12T09:16:15;57294.44;;;-144.48;46.24
10688;BME280;5392;42.688;23.298;2023-08-12T09:18:43;57292.38;;;-144.48;46.70
10688;BME280;5392;42.688;23.298;2023-08-12T09:21:11;57281.94;;;-144.48;46.38
10688;BME280;5392;42.688;23.298;2023-08-12T09:23:39;57263.16;;;-144.48;45.88
10688;BME280;5392;42.688;23.298;2023-08-12T09:26:17;57288.19;;;-144.48;45.67
10688;BME280;5392;42.688;23.298;2023-08-12T09:28:44;57267.31;;;-144.48;45.22
10688;BME280;5392;42.688;23.298;2023-08-12T09:31:26;57263.16;;;-144.48;46.50
10688;BME280;5392;42.688;23.298;2023-08-12T09:34:03;57309.06;;;-144.48;46.67
10688;BME280;5392;42.688;23.298;2023-08-12T09:36:30;57302.81;;;-144.48;47.38
10688;BME280;5392;42.688;23.298;2023-08-12T09:38:57;57275.66;;;-144.48;47.40
10688;BME280;5392;42.688;23.298;2023-08-12T09:41:27;57261.06;;;-144.48;48.00
10688;BME280;5392;42.688;23.298;2023-08-12T09:43:55;57313.22;;;-144.48;47.61
10688;BME280;5392;42.688;23.298;2023-08-12T09:46:23;57290.28;;;-144.48;47.84
10688;BME280;5392;42.688;23.298;2023-08-12T09:48:51;57281.94;;;-144.48;48.34
10688;BME280;5392;42.688;23.298;2023-08-12T09:51:19;57294.44;;;-144.48;49.08
10688;BME280;5392;42.688;23.298;2023-08-12T09:53:49;57304.88;;;-144.48;48.10
10688;BME280;5392;42.688;23.298;2023-08-12T09:56:18;57275.66;;;-144.48;47.87
10688;BME280;5392;42.688;23.298;2023-08-12T09:58:52;57296.53;;;-144.48;48.90
10688;BME280;5392;42.688;23.298;2023-08-12T10:01:20;57321.59;;;-144.48;49.39
10688;BME280;5392;42.688;23.298;2023-08-12T10:03:51;57286.09;;;-144.48;48.84
10688;BME280;5392;42.688;23.298;2023-08-12T10:06:20;57300.72;;;-144.48;48.82
10688;BME280;5392;42.688;23.298;2023-08-12T10:08:47;57342.47;;;-144.48;48.54
10688;BME280;5392;42.688;23.298;2023-08-12T10:11:14;57288.19;;;-144.48;47.88
10688;BME280;5392;42.688;23.298;2023-08-12T10:13:42;57292.38;;;-144.48;48.02
10688;BME280;5392;42.688;23.298;2023-08-12T10:16:10;57323.66;;;-144.48;48.62
10688;BME280;5392;42.688;23.298;2023-08-12T10:18:42;57298.63;;;-144.48;48.06
10688;BME280;5392;42.688;23.298;2023-08-12T10:21:10;57290.28;;;-144.48;47.35
10688;BME280;5392;42.688;23.298;2023-08-12T10:23:41;57269.41;;;-144.48;48.66
10688;BME280;5392;42.688;23.298;2023-08-12T10:26:11;57286.09;;;-144.48;49.01
10688;BME280;5392;42.688;23.298;2023-08-12T10:28:39;57334.09;;;-144.48;48.16
10688;BME280;5392;42.688;23.298;2023-08-12T10:31:06;57300.72;;;-144.48;47.98
10688;BME280;5392;42.688;23.298;2023-08-12T10:33:41;57306.97;;;-144.48;48.35
10688;BME280;5392;42.688;23.298;2023-08-12T10:36:08;57267.31;;;-144.48;48.43
10688;BME280;5392;42.688;23.298;2023-08-12T10:38:35;57288.19;;;-144.48;48.56
10688;BME280;5392;42.688;23.298;2023-08-12T10:46:34;57317.41;;;-144.48;48.82
10688;BME280;5392;42.688;23.298;2023-08-12T10:49:10;57302.81;;;-144.48;48.18
10688;BME280;5392;42.688;23.298;2023-08-12T10:54:19;57284.00;;;-144.48;48.33
10688;BME280;5392;42.688;23.298;2023-08-12T11:02:16;57275.66;;;-144.48;48.03
10688;BME280;5392;42.688;23.298;2023-08-12T11:04:44;57261.06;;;-144.48;48.13
10688;BME280;5392;42.688;23.298;2023-08-12T11:08:06;57294.44;;;-144.48;48.42
10688;BME280;5392;42.688;23.298;2023-08-12T11:10:18;57323.66;;;-144.48;47.88
10688;BME280;5392;42.688;23.298;2023-08-12T11:12:52;57263.16;;;-144.48;47.37
10688;BME280;5392;42.688;23.298;2023-08-12T11:18:13;57300.72;;;-144.48;47.96
10688;BME280;5392;42.688;23.298;2023-08-12T11:20:41;57265.22;;;-144.48;47.25
10688;BME280;5392;42.688;23.298;2023-08-12T11:23:09;57279.84;;;-144.48;46.96
10688;BME280;5392;42.688;23.298;2023-08-12T11:25:38;57263.16;;;-144.48;46.44
10688;BME280;5392;42.688;23.298;2023-08-12T11:28:06;57275.66;;;-144.48;46.28
10688;BME280;5392;42.688;23.298;2023-08-12T11:30:34;57279.84;;;-144.48;44.22
10688;BME280;5392;42.688;23.298;2023-08-12T11:33:02;57294.44;;;-144.48;44.67
10688;BME280;5392;42.688;23.298;2023-08-12T11:35:29;57296.53;;;-144.48;45.50
10688;BME280;5392;42.688;23.298;2023-08-12T11:37:58;57246.44;;;-144.48;45.62
10688;BME280;5392;42.688;23.298;2023-08-12T11:40:26;57300.72;;;-144.48;45.96
10688;BME280;5392;42.688;23.298;2023-08-12T11:42:54;57292.38;;;-144.48;45.60
10688;BME280;5392;42.688;23.298;2023-08-12T11:45:23;57279.84;;;-144.48;45.23
10688;BME280;5392;42.688;23.298;2023-08-12T11:47:51;57300.72;;;-144.48;44.94
10688;BME280;5392;42.688;23.298;2023-08-12T11:50:26;57284.00;;;-144.48;44.87
10688;BME280;5392;42.688;23.298;2023-08-12T11:52:55;57238.09;;;-144.48;44.83
10688;BME280;5392;42.688;23.298;2023-08-12T11:55:23;57288.19;;;-144.48;45.09
10688;BME280;5392;42.688;23.298;2023-08-12T11:57:50;57275.66;;;-144.48;45.39
10688;BME280;5392;42.688;23.298;2023-08-12T12:00:18;57284.00;;;-144.48;45.61
10688;BME280;5392;42.688;23.298;2023-08-12T12:02:53;57298.63;;;-144.48;46.03
10688;BME280;5392;42.688;23.298;2023-08-12T12:05:27;57300.72;;;-144.48;46.21
10688;BME280;5392;42.688;23.298;2023-08-12T12:07:54;57284.00;;;-144.48;45.66
10688;BME280;5392;42.688;23.298;2023-08-12T12:10:29;57269.41;;;-144.48;45.64
10688;BME280;5392;42.688;23.298;2023-08-12T12:13:02;57238.09;;;-144.48;45.46
10688;BME280;5392;42.688;23.298;2023-08-12T12:15:29;57265.22;;;-144.48;44.87
10688;BME280;5392;42.688;23.298;2023-08-12T12:17:56;57256.88;;;-144.48;45.41
10688;BME280;5392;42.688;23.298;2023-08-12T12:20:23;57263.16;;;-144.48;45.88
10688;BME280;5392;42.688;23.298;2023-08-12T12:22:50;57302.81;;;-144.48;47.06
10688;BME280;5392;42.688;23.298;2023-08-12T12:25:17;57300.72;;;-144.48;48.10
10688;BME280;5392;42.688;23.298;2023-08-12T12:27:47;57302.81;;;-144.48;47.40
10688;BME280;5392;42.688;23.298;2023-08-12T12:30:15;57323.66;;;-144.48;48.24
10688;BME280;5392;42.688;23.298;2023-08-12T12:32:42;57296.53;;;-144.48;47.11
10688;BME280;5392;42.688;23.298;2023-08-12T12:35:09;57313.22;;;-144.48;47.15
10688;BME280;5392;42.688;23.298;2023-08-12T12:37:36;57286.09;;;-144.48;47.36
10688;BME280;5392;42.688;23.298;2023-08-12T12:40:04;57277.75;;;-144.48;47.99
10688;BME280;5392;42.688;23.298;2023-08-12T12:42:32;57300.72;;;-144.48;47.77
10688;BME280;5392;42.688;23.298;2023-08-12T12:44:59;57296.53;;;-144.48;47.75
10688;BME280;5392;42.688;23.298;2023-08-12T12:47:26;57286.09;;;-144.48;48.03
10688;BME280;5392;42.688;23.298;2023-08-12T12:49:52;57315.31;;;-144.48;46.90
10688;BME280;5392;42.688;23.298;2023-08-12T12:52:19;57261.06;;;-144.48;47.51
10688;BME280;5392;42.688;23.298;2023-08-12T12:54:46;57288.19;;;-144.48;47.12
10688;BME280;5392;42.688;23.298;2023-08-12T12:57:12;57290.28;;;-144.48;46.69
10688;BME280;5392;42.688;23.298;2023-08-12T12:59:39;57244.34;;;-144.48;46.95
10688;BME280;5392;42.688;23.298;2023-08-12T13:02:06;57286.09;;;-144.48;46.78
10688;BME280;5392;42.688;23.298;2023-08-12T13:04:34;57279.84;;;-144.48;47.26